createdAt,value
2023-04-15T00:01:12.261Z,1.33
2023-04-15T00:03:39.815Z,1.10
2023-04-15T00:06:07.805Z,1.13
2023-04-15T00:08:35.101Z,1.35
2023-04-15T00:11:05.811Z,1.10
2023-04-15T00:13:34.312Z,1.35
2023-04-15T00:16:02.334Z,1.08
2023-04-15T00:18:30.067Z,0.73
2023-04-15T00:20:57.199Z,1.33
2023-04-15T00:23:24.449Z,1.83
2023-04-15T00:25:52.121Z,1.13
2023-04-15T00:28:19.553Z,1.25
2023-04-15T00:30:47.506Z,0.90
2023-04-15T00:33:16.563Z,1.02
2023-04-15T00:35:43.889Z,0.93
2023-04-15T00:38:11.694Z,1.63
2023-04-15T00:40:38.926Z,1.25
2023-04-15T00:43:07.217Z,1.00
2023-04-15T00:45:34.381Z,0.88
2023-04-15T00:48:01.783Z,1.25
2023-04-15T00:50:28.987Z,0.80
2023-04-15T00:52:56.227Z,0.80
2023-04-15T00:55:24.068Z,1.20
2023-04-15T00:57:51.226Z,0.82
2023-04-15T01:00:18.293Z,0.82
2023-04-15T01:02:45.761Z,1.08
2023-04-15T01:05:13.052Z,0.80
2023-04-15T01:07:40.162Z,0.80
2023-04-15T01:10:08.333Z,1.30
2023-04-15T01:12:36.572Z,0.90
2023-04-15T01:15:04.413Z,0.80
2023-04-15T01:17:31.602Z,0.90
2023-04-15T01:19:59.522Z,1.00
2023-04-15T01:22:27.913Z,1.10
2023-04-15T01:25:08.450Z,0.65
2023-04-15T01:27:37.501Z,0.80
2023-04-15T01:30:05.753Z,0.80
2023-04-15T01:32:32.873Z,0.63
2023-04-15T01:34:59.952Z,1.17
2023-04-15T01:37:27.676Z,1.02
2023-04-15T01:39:54.807Z,0.65
2023-04-15T01:42:22.612Z,0.65
2023-04-15T01:44:49.720Z,0.88
2023-04-15T01:47:16.726Z,0.98
2023-04-15T01:49:43.818Z,1.15
2023-04-15T01:52:10.861Z,0.57
2023-04-15T01:54:38.398Z,0.82
2023-04-15T01:57:05.780Z,0.77
2023-04-15T01:59:33.227Z,0.88
2023-04-15T02:02:00.683Z,1.20
2023-04-15T02:04:28.165Z,0.82
2023-04-15T02:06:55.677Z,0.60
2023-04-15T02:09:23.069Z,0.80
2023-04-15T02:11:53.087Z,0.73
2023-04-15T02:14:20.425Z,1.20
2023-04-15T02:16:47.567Z,0.88
2023-04-15T02:19:15.603Z,1.05
2023-04-15T02:21:42.691Z,0.73
2023-04-15T02:24:09.833Z,0.80
2023-04-15T02:26:36.859Z,0.85
2023-04-15T02:29:04.198Z,1.17
2023-04-15T02:31:37.074Z,0.82
2023-04-15T02:34:04.797Z,1.00
2023-04-15T02:36:32.071Z,1.23
2023-04-15T02:38:59.371Z,0.90
2023-04-15T02:41:28.622Z,0.70
2023-04-15T02:43:55.949Z,1.00
2023-04-15T02:46:23.199Z,0.75
2023-04-15T02:48:51.120Z,0.73
2023-04-15T02:51:20.200Z,0.90
2023-04-15T02:53:49.141Z,0.77
2023-04-15T02:56:17.501Z,0.60
2023-04-15T02:58:45.926Z,0.60
2023-04-15T03:01:13.771Z,0.70
2023-04-15T03:03:41.090Z,0.70
2023-04-15T03:06:09.212Z,0.65
2023-04-15T03:08:36.618Z,0.57
2023-04-15T03:11:04.066Z,0.90
2023-04-15T03:13:31.378Z,0.57
2023-04-15T03:15:58.729Z,0.70
2023-04-15T03:18:26.034Z,0.50
2023-04-15T03:20:53.233Z,0.75
2023-04-15T03:23:20.292Z,0.52
2023-04-15T03:25:47.350Z,0.65
2023-04-15T03:28:14.971Z,0.70
2023-04-15T03:30:42.222Z,1.05
2023-04-15T03:33:09.278Z,0.50
2023-04-15T03:35:36.435Z,0.50
2023-04-15T03:38:03.456Z,0.88
2023-04-15T03:40:31.324Z,0.70
2023-04-15T03:42:58.305Z,1.10
2023-04-15T03:45:25.882Z,0.47
2023-04-15T03:47:52.981Z,0.85
2023-04-15T03:50:20.124Z,0.60
2023-04-15T03:52:48.656Z,0.38
2023-04-15T03:55:16.724Z,0.30
2023-04-15T03:57:43.740Z,0.55
2023-04-15T04:00:11.036Z,1.00
2023-04-15T04:02:38.691Z,0.73
2023-04-15T04:05:07.177Z,0.40
2023-04-15T04:07:34.228Z,0.30
2023-04-15T04:10:01.393Z,0.77
2023-04-15T04:12:28.486Z,0.55
2023-04-15T04:14:55.678Z,0.43
2023-04-15T04:17:23.218Z,0.82
2023-04-15T04:19:50.373Z,0.38
2023-04-15T04:22:17.487Z,0.30
2023-04-15T04:24:44.507Z,0.50
2023-04-15T04:27:11.808Z,0.30
2023-04-15T04:29:39.389Z,0.98
2023-04-15T04:32:06.926Z,0.45
2023-04-15T04:34:34.058Z,0.30
2023-04-15T04:37:01.486Z,0.50
2023-04-15T04:39:28.886Z,0.60
2023-04-15T04:41:56.661Z,0.82
2023-04-15T04:44:23.707Z,0.30
2023-04-15T04:46:50.853Z,0.40
2023-04-15T04:49:17.998Z,0.40
2023-04-15T04:51:45.429Z,0.30
2023-04-15T04:54:13.074Z,0.65
2023-04-15T04:56:40.149Z,0.57
2023-04-15T04:59:07.931Z,0.60
2023-04-15T05:01:35.255Z,0.25
2023-04-15T05:04:02.541Z,0.43
2023-04-15T05:06:31.240Z,0.40
2023-04-15T05:08:58.284Z,0.40
2023-04-15T05:11:25.774Z,0.28
2023-04-15T05:13:52.800Z,0.20
2023-04-15T05:16:20.809Z,0.32
2023-04-15T05:18:48.496Z,0.40
2023-04-15T05:21:15.678Z,0.20
2023-04-15T05:23:42.800Z,0.28
2023-04-15T05:26:09.929Z,0.40
2023-04-15T05:28:37.072Z,0.43
2023-04-15T05:31:04.862Z,0.45
2023-04-15T05:33:32.016Z,0.13
2023-04-15T05:35:59.100Z,0.45
2023-04-15T05:38:26.281Z,0.30
2023-04-15T05:40:56.222Z,0.35
2023-04-15T05:43:24.163Z,0.55
2023-04-15T05:45:51.406Z,2.17
2023-04-15T05:48:18.446Z,0.40
2023-04-15T05:50:45.639Z,0.40
2023-04-15T05:53:12.621Z,0.50
2023-04-15T05:55:40.508Z,2.13
2023-04-15T05:58:07.531Z,0.57
2023-04-15T06:00:34.733Z,0.22
2023-04-15T06:03:01.936Z,0.32
2023-04-15T06:05:29.469Z,0.30
2023-04-15T06:07:57.036Z,0.57
2023-04-15T06:10:24.077Z,0.75
2023-04-15T06:12:52.890Z,0.32
2023-04-15T06:15:20.224Z,0.40
2023-04-15T06:17:47.416Z,0.47
2023-04-15T06:20:15.028Z,0.50
2023-04-15T06:22:42.064Z,0.55
2023-04-15T06:25:09.551Z,0.35
2023-04-15T06:27:36.842Z,0.30
2023-04-15T06:30:04.995Z,0.43
2023-04-15T06:32:33.256Z,1.08
2023-04-15T06:35:01.201Z,0.57
2023-04-15T06:37:31.639Z,1.30
2023-04-15T06:39:58.895Z,0.30
2023-04-15T06:42:26.027Z,1.65
2023-04-15T06:44:53.025Z,0.30
2023-04-15T06:47:20.106Z,0.63
2023-04-15T06:49:47.183Z,0.35
2023-04-15T06:52:14.665Z,0.32
2023-04-15T06:54:42.141Z,0.17
2023-04-15T06:57:09.857Z,0.30
2023-04-15T06:59:37.031Z,0.50
2023-04-15T07:02:04.199Z,0.40
2023-04-15T07:04:31.683Z,0.25
2023-04-15T07:07:02.622Z,1.75
2023-04-15T07:09:29.923Z,0.30
2023-04-15T07:11:57.042Z,0.77
2023-04-15T07:14:24.101Z,0.73
2023-04-15T07:16:51.443Z,0.35
2023-04-15T07:19:19.515Z,0.70
2023-04-15T07:21:47.253Z,0.40
2023-04-15T07:24:18.211Z,0.47
2023-04-15T07:26:45.556Z,0.52
2023-04-15T07:29:12.678Z,0.30
2023-04-15T07:31:41.753Z,0.30
2023-04-15T07:34:08.797Z,0.60
2023-04-15T07:36:35.907Z,0.30
2023-04-15T07:39:04.245Z,1.02
2023-04-15T07:41:31.937Z,0.20
2023-04-15T07:43:59.118Z,0.40
2023-04-15T07:46:27.645Z,0.43
2023-04-15T07:48:54.816Z,0.30
2023-04-15T07:51:22.336Z,0.65
2023-04-15T07:53:50.654Z,0.40
2023-04-15T07:56:17.950Z,0.30
2023-04-15T07:58:45.057Z,1.30
2023-04-15T08:01:12.672Z,0.40
2023-04-15T08:03:40.116Z,0.43
2023-04-15T08:06:08.366Z,0.40
2023-04-15T08:08:35.785Z,0.47
2023-04-15T08:11:02.870Z,0.30
2023-04-15T08:13:29.971Z,0.63
2023-04-15T08:16:19.603Z,0.45
2023-04-15T08:18:48.004Z,0.52
2023-04-15T08:21:15.486Z,0.65
2023-04-15T08:23:43.243Z,0.50
2023-04-15T08:26:13.359Z,0.32
2023-04-15T08:28:41.748Z,0.45
2023-04-15T08:31:09.802Z,0.20
2023-04-15T08:33:37.107Z,0.98
2023-04-15T08:36:04.634Z,0.65
2023-04-15T08:38:32.020Z,0.73
2023-04-15T08:41:03.074Z,0.68
2023-04-15T08:43:40.929Z,0.40
2023-04-15T08:46:09.580Z,2.05
2023-04-15T08:48:38.859Z,0.28
2023-04-15T08:51:06.955Z,0.63
2023-04-15T08:53:34.387Z,0.40
2023-04-15T08:56:07.767Z,0.50
2023-04-15T08:58:35.770Z,0.40
2023-04-15T09:01:03.537Z,0.40
2023-04-15T09:03:32.013Z,0.40
2023-04-15T09:05:59.916Z,0.60
2023-04-15T09:08:27.008Z,0.47
2023-04-15T09:10:55.321Z,0.40
2023-04-15T09:13:22.392Z,0.73
2023-04-15T09:15:49.603Z,0.38
2023-04-15T09:18:29.732Z,0.38
2023-04-15T09:21:05.605Z,1.00
2023-04-15T09:23:34.106Z,0.60
2023-04-15T09:26:04.991Z,0.50
2023-04-15T09:28:32.556Z,0.50
2023-04-15T09:31:01.350Z,0.30
2023-04-15T09:33:30.336Z,0.30
2023-04-15T09:36:05.716Z,0.82
2023-04-15T09:38:33.113Z,0.50
2023-04-15T09:41:00.441Z,0.68
2023-04-15T09:43:40.909Z,0.25
2023-04-15T09:46:08.154Z,0.63
2023-04-15T09:48:35.636Z,0.30
2023-04-15T09:51:02.959Z,1.75
2023-04-15T09:53:31.840Z,0.35
2023-04-15T09:56:02.583Z,0.40
2023-04-15T09:58:33.651Z,0.55
2023-04-15T10:01:04.004Z,2.83
2023-04-15T10:03:34.582Z,0.55
2023-04-15T10:06:03.664Z,0.70
2023-04-15T10:08:34.964Z,0.52
2023-04-15T10:11:03.466Z,0.30
2023-04-15T10:13:33.502Z,0.70
2023-04-15T10:16:12.245Z,0.98
2023-04-15T10:18:43.984Z,0.40
2023-04-15T10:21:14.064Z,0.75
2023-04-15T10:23:41.599Z,0.52
2023-04-15T10:26:10.183Z,0.60
2023-04-15T10:28:37.238Z,0.40
2023-04-15T10:31:06.204Z,0.60
2023-04-15T10:33:34.928Z,0.50
2023-04-15T10:36:02.469Z,0.30
2023-04-15T10:38:42.119Z,0.60
2023-04-15T10:41:21.980Z,0.45
2023-04-15T10:44:01.917Z,0.45
2023-04-15T10:46:44.339Z,0.22
2023-04-15T10:49:17.733Z,0.45
2023-04-15T10:51:47.727Z,0.50
2023-04-15T10:54:17.725Z,0.45
2023-04-15T10:57:13.110Z,0.47
2023-04-15T11:00:04.773Z,0.50
2023-04-15T11:02:45.919Z,0.40
2023-04-15T11:05:15.614Z,0.30
2023-04-15T11:07:56.288Z,0.68
2023-04-15T11:10:54.099Z,0.32
2023-04-15T11:13:25.211Z,0.63
2023-04-15T11:15:58.352Z,0.60
2023-04-15T11:18:28.668Z,0.30
2023-04-15T11:23:38.943Z,0.43
2023-04-15T11:26:11.898Z,0.40
2023-04-15T11:28:41.255Z,0.40
2023-04-15T11:31:13.760Z,0.53
2023-04-15T11:33:59.653Z,0.30
2023-04-15T11:36:27.989Z,0.60
2023-04-15T11:38:55.845Z,0.55
2023-04-15T11:41:23.674Z,0.40
2023-04-15T11:43:51.875Z,0.50
2023-04-15T11:46:19.148Z,0.30
2023-04-15T11:48:47.508Z,0.70
2023-04-15T11:51:15.286Z,1.00
2023-04-15T11:53:56.053Z,0.57
2023-04-15T11:56:26.298Z,0.43
2023-04-15T12:01:36.426Z,1.30
2023-04-15T12:04:16.616Z,0.55
2023-04-15T12:09:15.834Z,0.90
2023-04-15T12:11:51.400Z,0.20
2023-04-15T12:14:22.946Z,0.30
2023-04-15T12:16:54.166Z,0.63
2023-04-15T12:19:30.108Z,0.20
2023-04-15T12:22:02.815Z,0.40
2023-04-15T12:24:34.784Z,0.40
2023-04-15T12:27:11.039Z,0.30
2023-04-15T12:29:40.115Z,1.13
2023-04-15T12:32:13.206Z,0.47
2023-04-15T12:34:52.307Z,0.40
2023-04-15T12:37:19.664Z,0.75
2023-04-15T12:39:49.180Z,0.40
2023-04-15T12:42:17.532Z,0.50
2023-04-15T12:44:44.876Z,0.25
2023-04-15T12:47:14.161Z,0.82
2023-04-15T12:49:41.494Z,0.30
2023-04-15T12:52:08.841Z,0.73
2023-04-15T12:54:36.428Z,0.20
2023-04-15T12:57:06.921Z,0.20
2023-04-15T12:59:35.540Z,0.57
2023-04-15T13:02:03.379Z,0.40
2023-04-15T13:04:31.469Z,0.63
2023-04-15T13:06:58.936Z,1.38
2023-04-15T13:09:26.156Z,0.30
2023-04-15T13:11:54.548Z,0.30
2023-04-15T13:14:21.829Z,0.35
2023-04-15T13:16:48.994Z,0.40
2023-04-15T13:19:16.492Z,0.40
2023-04-15T13:21:43.594Z,0.40
2023-04-15T13:24:10.768Z,1.10
2023-04-15T13:26:38.158Z,0.30
2023-04-15T13:29:05.557Z,0.20
2023-04-15T13:31:33.335Z,0.90
2023-04-15T13:34:00.503Z,0.25
2023-04-15T13:36:27.937Z,1.00
2023-04-15T13:38:58.557Z,0.55
2023-04-15T13:41:25.778Z,0.43
2023-04-15T13:43:53.712Z,0.20
2023-04-15T13:46:20.785Z,0.45
2023-04-15T13:48:48.166Z,0.35
2023-04-15T13:51:15.573Z,0.40
2023-04-15T13:53:42.547Z,0.50
2023-04-15T13:56:10.665Z,0.40
2023-04-15T13:58:38.458Z,0.30
2023-04-15T14:01:07.018Z,0.68
2023-04-15T14:03:38.308Z,1.63
2023-04-15T14:06:06.641Z,0.20
2023-04-15T14:08:34.098Z,0.32
2023-04-15T14:11:01.308Z,0.20
2023-04-15T14:13:28.394Z,0.50
2023-04-15T14:15:56.776Z,1.65
2023-04-15T14:18:24.412Z,0.52
2023-04-15T14:20:51.869Z,0.52
2023-04-15T14:23:19.057Z,0.25
2023-04-15T14:25:48.192Z,0.82
2023-04-15T14:28:16.239Z,0.30
2023-04-15T14:30:43.991Z,0.20
2023-04-15T14:33:11.103Z,0.17
2023-04-15T14:35:38.298Z,0.25
2023-04-15T14:38:06.263Z,0.20
2023-04-15T14:40:34.023Z,0.40
2023-04-15T14:43:01.908Z,0.20
2023-04-15T14:45:30.083Z,0.20
2023-04-15T14:47:57.372Z,0.28
2023-04-15T14:50:24.625Z,0.10
2023-04-15T14:52:51.892Z,0.28
2023-04-15T14:55:19.218Z,0.20
2023-04-15T14:57:46.288Z,0.68
2023-04-15T15:00:16.005Z,0.25
2023-04-15T15:02:43.835Z,0.20
2023-04-15T15:05:12.108Z,0.95
2023-04-15T15:07:41.196Z,0.75
2023-04-15T15:10:08.851Z,0.20
2023-04-15T15:12:35.988Z,0.63
2023-04-15T15:15:12.264Z,0.85
2023-04-15T15:17:43.562Z,0.20
2023-04-15T15:20:11.052Z,1.65
2023-04-15T15:22:38.156Z,0.20
2023-04-15T15:25:05.884Z,0.20
2023-04-15T15:27:33.592Z,0.25
2023-04-15T15:30:00.745Z,0.10
2023-04-15T15:32:27.846Z,0.30
2023-04-15T15:34:54.905Z,0.20
2023-04-15T15:37:21.970Z,0.75
2023-04-15T15:39:50.886Z,0.43
2023-04-15T15:42:19.639Z,0.20
2023-04-15T15:44:46.753Z,0.20
2023-04-15T15:47:13.826Z,0.40
2023-04-15T15:49:40.978Z,0.20
2023-04-15T15:52:09.005Z,0.38
2023-04-15T15:54:37.790Z,0.65
2023-04-15T15:57:04.927Z,0.45
2023-04-15T15:59:33.239Z,0.20
2023-04-15T16:02:02.522Z,0.20
2023-04-15T16:04:30.178Z,0.50
2023-04-15T16:06:57.366Z,3.08
2023-04-15T16:09:24.429Z,0.40
2023-04-15T16:11:51.478Z,0.30
2023-04-15T16:14:18.885Z,0.10
2023-04-15T16:16:46.133Z,0.15
2023-04-15T16:19:13.274Z,0.55
2023-04-15T16:21:40.506Z,0.45
2023-04-15T16:24:07.633Z,0.22
2023-04-15T16:26:36.032Z,0.20
2023-04-15T16:29:03.768Z,0.20
2023-04-15T16:31:31.471Z,0.10
2023-04-15T16:33:58.618Z,0.25
2023-04-15T16:36:26.117Z,0.30
2023-04-15T16:38:54.221Z,0.20
2023-04-15T16:41:21.313Z,0.38
2023-04-15T16:43:48.357Z,0.20
2023-04-15T16:46:15.674Z,0.20
2023-04-15T16:48:42.844Z,0.80
2023-04-15T16:51:10.056Z,1.20
2023-04-15T16:53:37.146Z,0.35
2023-04-15T16:56:04.290Z,0.20
2023-04-15T16:58:31.498Z,0.50
2023-04-15T17:00:59.320Z,0.25
2023-04-15T17:03:26.768Z,0.60
2023-04-15T17:05:54.018Z,0.85
2023-04-15T17:08:21.111Z,0.30
2023-04-15T17:10:48.161Z,0.50
2023-04-15T17:13:15.201Z,0.22
2023-04-15T17:15:42.868Z,0.77
2023-04-15T17:18:10.843Z,0.70
2023-04-15T17:20:41.415Z,0.50
2023-04-15T17:23:08.474Z,0.20
2023-04-15T17:25:35.676Z,0.30
2023-04-15T17:28:03.231Z,0.40
2023-04-15T17:30:30.495Z,0.80
2023-04-15T17:32:57.606Z,0.40
2023-04-15T17:35:26.273Z,0.57
2023-04-15T17:37:53.311Z,0.98
2023-04-15T17:40:21.995Z,0.30
2023-04-15T17:42:49.516Z,0.25
2023-04-15T17:45:16.625Z,0.35
2023-04-15T17:47:44.065Z,0.30
2023-04-15T17:50:11.175Z,0.50
2023-04-15T17:52:38.883Z,0.95
2023-04-15T17:55:06.757Z,0.60
2023-04-15T17:57:34.071Z,0.32
2023-04-15T18:00:01.170Z,0.30
2023-04-15T18:02:28.326Z,0.43
2023-04-15T18:04:56.210Z,0.30
2023-04-15T18:07:23.530Z,0.40
2023-04-15T18:09:50.798Z,0.55
2023-04-15T18:12:17.832Z,0.32
2023-04-15T18:14:44.869Z,0.68
2023-04-15T18:17:14.592Z,0.50
2023-04-15T18:19:41.769Z,0.22
2023-04-15T18:22:08.952Z,0.30
2023-04-15T18:24:36.088Z,0.22
2023-04-15T18:27:03.888Z,0.52
2023-04-15T18:29:31.724Z,0.55
2023-04-15T18:32:00.408Z,0.82
2023-04-15T18:34:27.576Z,0.55
2023-04-15T18:36:57.037Z,0.52
2023-04-15T18:39:24.064Z,0.50
2023-04-15T18:41:52.316Z,0.70
2023-04-15T18:44:19.542Z,0.85
2023-04-15T18:46:46.617Z,0.40
2023-04-15T18:49:13.728Z,0.32
2023-04-15T18:51:41.728Z,0.38
2023-04-15T18:54:09.322Z,1.38
2023-04-15T18:56:36.415Z,0.50
2023-04-15T18:59:19.417Z,0.60
2023-04-15T19:01:51.762Z,0.68
2023-04-15T19:04:19.726Z,0.75
2023-04-15T19:06:47.831Z,0.70
2023-04-15T19:09:15.928Z,0.98
2023-04-15T19:11:44.148Z,0.40
2023-04-15T19:14:11.809Z,0.63
2023-04-15T19:16:40.270Z,0.60
2023-04-15T19:19:07.569Z,0.80
2023-04-15T19:21:34.983Z,0.73
2023-04-15T19:24:02.085Z,1.05
2023-04-15T19:26:29.595Z,0.57
2023-04-15T19:28:59.008Z,2.55
2023-04-15T19:31:26.444Z,1.00
2023-04-15T19:33:53.491Z,1.02
2023-04-15T19:36:20.618Z,0.73
2023-04-15T19:38:47.644Z,0.98
2023-04-15T19:41:16.103Z,1.08
2023-04-15T19:43:43.128Z,0.82
2023-04-15T19:46:13.270Z,1.20
2023-04-15T19:48:40.640Z,1.35
2023-04-15T19:51:07.850Z,1.52
2023-04-15T19:53:35.516Z,1.55
2023-04-15T19:56:02.602Z,1.13
2023-04-15T19:58:30.235Z,1.33
2023-04-15T20:00:57.301Z,0.68
2023-04-15T20:03:24.597Z,0.98
2023-04-15T20:05:52.970Z,1.30
2023-04-15T20:08:20.011Z,0.85
2023-04-15T20:10:47.059Z,1.05
2023-04-15T20:13:14.071Z,1.40
2023-04-15T20:15:41.324Z,1.10
2023-04-15T20:18:09.411Z,1.00
2023-04-15T20:20:37.429Z,1.13
2023-04-15T20:23:04.465Z,1.13
2023-04-15T20:25:31.526Z,1.08
2023-04-15T20:28:00.984Z,1.60
2023-04-15T20:30:29.387Z,1.35
2023-04-15T20:32:56.558Z,1.42
2023-04-15T20:35:25.137Z,1.40
2023-04-15T20:37:52.150Z,2.28
2023-04-15T20:40:19.210Z,1.75
2023-04-15T20:42:46.644Z,1.40
2023-04-15T20:45:13.754Z,1.35
2023-04-15T20:47:41.687Z,1.52
2023-04-15T20:50:09.368Z,1.38
2023-04-15T20:52:36.645Z,1.40
2023-04-15T20:55:04.127Z,1.30
2023-04-15T20:57:31.423Z,1.70
2023-04-15T20:59:58.543Z,1.30
2023-04-15T21:02:25.883Z,2.60
2023-04-15T21:04:53.060Z,1.60
2023-04-15T21:07:21.420Z,1.75
2023-04-15T21:09:49.382Z,1.23
2023-04-15T21:12:16.556Z,2.55
2023-04-15T21:14:43.686Z,1.40
2023-04-15T21:17:11.521Z,1.58
2023-04-15T21:19:40.465Z,2.13
2023-04-15T21:22:07.496Z,1.52
2023-04-15T21:24:34.796Z,1.85
2023-04-15T21:27:02.142Z,1.92
2023-04-15T21:29:29.429Z,2.58
2023-04-15T21:31:56.965Z,1.75
2023-04-15T21:34:24.342Z,2.08
2023-04-15T21:36:51.428Z,1.90
2023-04-15T21:39:18.535Z,2.25
2023-04-15T21:41:45.824Z,2.10
2023-04-15T21:44:14.841Z,1.67
2023-04-15T21:46:45.653Z,4.78
2023-04-15T21:49:13.527Z,1.85
2023-04-15T21:51:40.787Z,2.17
2023-04-15T21:54:07.973Z,2.28
2023-04-15T21:56:35.461Z,2.42
2023-04-15T21:59:02.559Z,3.65
2023-04-15T22:01:29.923Z,2.65
2023-04-15T22:03:57.137Z,2.30
2023-04-15T22:06:25.405Z,2.28
2023-04-15T22:08:56.763Z,2.00
2023-04-15T22:11:28.149Z,2.58
2023-04-15T22:13:56.968Z,3.15
2023-04-15T22:16:26.145Z,2.42
2023-04-15T22:18:53.663Z,2.65
2023-04-15T22:21:20.908Z,2.63
2023-04-15T22:23:49.102Z,3.17
2023-04-15T22:26:16.311Z,2.10
2023-04-15T22:28:43.783Z,2.22
2023-04-15T22:31:10.947Z,3.20
2023-04-15T22:33:39.059Z,4.00
2023-04-15T22:36:06.423Z,2.33
2023-04-15T22:38:33.500Z,3.38
2023-04-15T22:41:00.917Z,2.80
2023-04-15T22:43:28.003Z,3.22
2023-04-15T22:45:55.317Z,2.47
2023-04-15T22:48:22.855Z,3.78
2023-04-15T22:50:50.351Z,3.97
2023-04-15T22:53:18.318Z,2.30
2023-04-15T22:55:46.919Z,3.55
2023-04-15T22:58:15.029Z,2.58
2023-04-15T23:00:42.342Z,3.65
2023-04-15T23:03:09.615Z,3.30
2023-04-15T23:05:37.828Z,2.75
2023-04-15T23:08:04.880Z,2.80
2023-04-15T23:10:31.900Z,2.80
2023-04-15T23:12:59.007Z,2.83
2023-04-15T23:15:26.165Z,4.32
2023-04-15T23:19:13.612Z,2.83
2023-04-15T23:21:40.743Z,2.50
2023-04-15T23:24:07.796Z,2.88
2023-04-15T23:26:34.859Z,2.63
2023-04-15T23:29:02.014Z,2.53
2023-04-15T23:35:13.593Z,5.03
2023-04-15T23:37:40.710Z,2.83
2023-04-15T23:40:08.299Z,3.90
2023-04-15T23:43:13.889Z,3.95
2023-04-15T23:45:40.915Z,2.95
2023-04-15T23:48:07.980Z,3.05
2023-04-15T23:50:35.313Z,3.85
2023-04-15T23:53:02.471Z,3.10
2023-04-15T23:56:00.480Z,3.03
2023-04-15T23:59:13.587Z,4.22
